Time;durP1;ratioP1;P1;durP2;ratioP2;P2;SDS_P1;SDS_P2;PMS_P1;PMS_P2;Temp;Humidity;BMP_temperature;BMP_pressure;BME280_temperature;BME280_humidity;BME280_pressure;Samples;Min_cycle;Max_cycle;Signal;HPM_P1;HPM_P2
2021/11/09 00:00:09;;;;;;;0.00;0.00;;;10.90;62.20;;;;;;5035559;28;20033;-82
2021/11/09 00:02:35;;;;;;;0.00;0.00;;;10.90;62.30;;;;;;5035908;28;20025;-82
2021/11/09 00:05:03;;;;;;;0.00;0.00;;;10.90;62.20;;;;;;5035759;28;20079;-82
2021/11/09 00:07:45;;;;;;;0.00;0.00;;;10.90;62.20;;;;;;5035641;28;20099;-82
2021/11/09 00:10:11;;;;;;;0.00;0.00;;;10.90;62.20;;;;;;5035900;28;20048;-82
2021/11/09 00:12:43;;;;;;;0.00;0.00;;;10.90;62.20;;;;;;5035269;28;20029;-83
2021/11/09 00:15:12;;;;;;;0.00;0.00;;;10.90;62.20;;;;;;5035534;28;20108;-82
2021/11/09 00:17:38;;;;;;;0.00;0.00;;;10.80;62.20;;;;;;5034865;28;20025;-82
2021/11/09 00:20:07;;;;;;;0.00;0.00;;;10.80;62.20;;;;;;5035340;28;20044;-82
2021/11/09 00:22:32;;;;;;;0.00;0.00;;;10.70;62.20;;;;;;5035745;28;20040;-83
2021/11/09 00:24:58;;;;;;;0.00;0.00;;;10.60;62.30;;;;;;5034998;28;20389;-83
2021/11/09 00:27:24;;;;;;;0.00;0.00;;;10.50;62.50;;;;;;5035273;28;20029;-83
2021/11/09 00:29:50;;;;;;;0.00;0.00;;;10.40;62.70;;;;;;5050196;28;20052;-83
2021/11/09 00:32:16;;;;;;;0.00;0.00;;;10.40;62.80;;;;;;5034887;28;20113;-83
2021/11/09 00:34:44;;;;;;;0.00;0.00;;;10.30;62.90;;;;;;5035112;28;20052;-83
2021/11/09 00:37:10;;;;;;;0.00;0.00;;;10.30;63.00;;;;;;5015994;28;20105;-82
2021/11/09 00:39:37;;;;;;;0.00;0.00;;;10.30;63.20;;;;;;5030957;28;20045;-83
2021/11/09 00:42:03;;;;;;;0.00;0.00;;;10.30;63.20;;;;;;5034624;28;20539;-82
2021/11/09 00:44:30;;;;;;;0.00;0.00;;;10.30;63.20;;;;;;5035069;28;20025;-83
2021/11/09 00:46:55;;;;;;;0.00;0.00;;;10.30;63.20;;;;;;5035081;28;20025;-83
2021/11/09 00:49:22;;;;;;;0.00;0.00;;;10.30;63.20;;;;;;5034699;28;20025;-82
2021/11/09 00:51:49;;;;;;;0.00;0.00;;;10.20;63.30;;;;;;5034818;28;20442;-83
2021/11/09 00:54:16;;;;;;;0.00;0.00;;;10.20;63.30;;;;;;5034629;28;20026;-83
2021/11/09 00:56:41;;;;;;;0.00;0.00;;;10.20;63.40;;;;;;5034564;28;20111;-83
2021/11/09 00:59:07;;;;;;;0.00;0.00;;;10.20;63.50;;;;;;5034521;28;20025;-82
2021/11/09 01:01:33;;;;;;;0.00;0.00;;;10.20;63.50;;;;;;5034520;28;20040;-83
2021/11/09 01:04:00;;;;;;;0.00;0.00;;;10.20;63.50;;;;;;5034135;28;20021;-83
2021/11/09 01:06:26;;;;;;;0.00;0.00;;;10.20;63.50;;;;;;5034270;28;20048;-83
2021/11/09 01:08:51;;;;;;;0.00;0.00;;;10.20;63.50;;;;;;5034482;28;20458;-83
2021/11/09 01:11:18;;;;;;;0.00;0.00;;;10.20;63.60;;;;;;5034006;28;20025;-83
2021/11/09 01:13:45;;;;;;;0.00;0.00;;;10.20;63.60;;;;;;5049761;28;20466;-83
2021/11/09 01:16:10;;;;;;;0.00;0.00;;;10.20;63.60;;;;;;5034476;28;20466;-82
2021/11/09 01:18:43;;;;;;;0.00;0.00;;;10.20;63.60;;;;;;5034244;28;20025;-83
2021/11/09 01:21:13;;;;;;;0.00;0.00;;;10.30;63.50;;;;;;5033886;28;20450;-82
2021/11/09 01:23:40;;;;;;;0.00;0.00;;;10.30;63.50;;;;;;5033704;28;20021;-83
2021/11/09 01:26:07;;;;;;;0.00;0.00;;;10.30;63.50;;;;;;5031623;28;20029;-81
2021/11/09 01:28:34;;;;;;;0.00;0.00;;;10.30;63.40;;;;;;5049067;28;20112;-83
2021/11/09 01:31:00;;;;;;;0.00;0.00;;;10.30;63.40;;;;;;5033877;28;20029;-83
2021/11/09 01:33:26;;;;;;;0.00;0.00;;;10.30;63.50;;;;;;5033826;28;20112;-83
2021/11/09 01:35:52;;;;;;;0.00;0.00;;;10.30;63.50;;;;;;5033896;28;20026;-83
2021/11/09 01:38:18;;;;;;;0.00;0.00;;;10.30;63.50;;;;;;5033906;28;20037;-82
2021/11/09 01:40:46;;;;;;;0.00;0.00;;;10.20;63.50;;;;;;5033484;28;20401;-83
2021/11/09 01:43:12;;;;;;;0.00;0.00;;;10.30;63.60;;;;;;5033800;28;20116;-82
2021/11/09 01:45:38;;;;;;;0.00;0.00;;;10.20;63.60;;;;;;5049192;28;20022;-82
2021/11/09 01:48:05;;;;;;;0.00;0.00;;;10.20;63.60;;;;;;5033533;28;20381;-83
2021/11/09 01:50:36;;;;;;;0.00;0.00;;;10.20;63.70;;;;;;5048998;28;20033;-83
2021/11/09 01:53:03;;;;;;;0.00;0.00;;;10.10;63.70;;;;;;5033728;28;20029;-83
2021/11/09 01:55:29;;;;;;;0.00;0.00;;;10.10;63.80;;;;;;5033439;28;20029;-83
2021/11/09 01:57:56;;;;;;;0.00;0.00;;;10.10;63.90;;;;;;5033702;28;20048;-83
2021/11/09 02:00:31;;;;;;;0.00;0.00;;;10.10;64.00;;;;;;5015904;28;20030;-82
2021/11/09 02:02:57;;;;;;;0.00;0.00;;;10.00;64.00;;;;;;5033996;28;20022;-83
2021/11/09 02:05:24;;;;;;;0.00;0.00;;;10.00;64.20;;;;;;5033204;28;20030;-82
2021/11/09 02:07:55;;;;;;;0.00;0.00;;;10.00;64.30;;;;;;5033521;28;20037;-83
2021/11/09 02:10:28;;;;;;;0.00;0.00;;;9.90;64.30;;;;;;5033524;28;20026;-82
2021/11/09 02:12:54;;;;;;;0.00;0.00;;;9.90;64.40;;;;;;5048834;28;20036;-83
2021/11/09 02:15:20;;;;;;;0.00;0.00;;;9.90;64.50;;;;;;5034688;28;20075;-82
2021/11/09 02:17:47;;;;;;;0.00;0.00;;;9.90;64.50;;;;;;5037401;28;20017;-83
2021/11/09 02:20:18;;;;;;;0.00;0.00;;;9.90;64.60;;;;;;5037299;28;20469;-82
2021/11/09 02:22:44;;;;;;;0.00;0.00;;;9.90;64.60;;;;;;5037938;28;20060;-83
2021/11/09 02:25:13;;;;;;;0.00;0.00;;;9.90;64.70;;;;;;5037710;28;20408;-82
2021/11/09 02:27:39;;;;;;;0.00;0.00;;;9.90;64.70;;;;;;5037056;28;20021;-82
2021/11/09 02:30:08;;;;;;;0.00;0.00;;;9.90;64.80;;;;;;5037209;28;20018;-82
2021/11/09 02:32:34;;;;;;;0.00;0.00;;;9.90;64.80;;;;;;5052302;28;20033;-83
2021/11/09 02:34:59;;;;;;;0.00;0.00;;;9.80;64.80;;;;;;5052533;28;20029;-83
2021/11/09 02:37:27;;;;;;;0.00;0.00;;;9.90;64.90;;;;;;5037141;28;20384;-82
2021/11/09 02:39:53;;;;;;;0.00;0.00;;;9.80;64.90;;;;;;5037173;28;20053;-83
2021/11/09 02:42:20;;;;;;;0.00;0.00;;;9.80;65.00;;;;;;5052057;28;20130;-82
2021/11/09 02:44:56;;;;;;;0.00;0.00;;;9.80;65.20;;;;;;5037172;28;20031;-83
2021/11/09 02:47:25;;;;;;;0.00;0.00;;;9.70;65.60;;;;;;5037048;28;20033;-82
2021/11/09 02:52:16;;;;;;;0.00;0.00;;;9.70;65.60;;;;;;5036923;28;20048;-82
2021/11/09 02:54:45;;;;;;;0.00;0.00;;;9.70;65.90;;;;;;5037516;28;20108;-83
2021/11/09 03:00:22;;;;;;;0.00;0.00;;;9.70;66.10;;;;;;4975534;28;20462;-82
2021/11/09 03:02:53;;;;;;;0.00;0.00;;;9.70;66.00;;;;;;4959440;28;20027;-83
2021/11/09 03:07:59;;;;;;;0.00;0.00;;;9.60;66.20;;;;;;5036294;28;20022;-83
2021/11/09 03:10:30;;;;;;;0.00;0.00;;;9.60;66.50;;;;;;5036637;28;20056;-82
2021/11/09 03:12:56;;;;;;;0.00;0.00;;;9.60;66.40;;;;;;5036522;28;20025;-82
2021/11/09 03:15:31;;;;;;;0.00;0.00;;;9.70;66.40;;;;;;5036082;28;20469;-82
2021/11/09 03:18:04;;;;;;;0.00;0.00;;;9.60;66.40;;;;;;5036770;28;20017;-82
2021/11/09 03:20:54;;;;;;;0.00;0.00;;;9.70;66.40;;;;;;5036149;28;20061;-82
2021/11/09 03:45:21;;;;;;;0.00;0.00;;;9.70;67.40;;;;;;5036082;28;20389;-83
2021/11/09 03:47:52;;;;;;;0.00;0.00;;;9.70;67.50;;;;;;5035841;28;20104;-83
2021/11/09 03:50:20;;;;;;;0.00;0.00;;;9.70;67.30;;;;;;5035573;28;20030;-82
2021/11/09 03:53:11;;;;;;;0.00;0.00;;;9.70;67.60;;;;;;5035865;28;20105;-83
2021/11/09 03:58:11;;;;;;;0.00;0.00;;;9.80;67.80;;;;;;5035967;28;20025;-83
2021/11/09 04:00:45;;;;;;;0.00;0.00;;;9.80;67.80;;;;;;5035302;28;20516;-83
2021/11/09 04:06:03;;;;;;;0.00;0.00;;;9.80;67.80;;;;;;5035280;28;19905;-83
2021/11/09 04:08:38;;;;;;;0.00;0.00;;;9.80;67.60;;;;;;5033997;28;20037;-83
2021/11/09 04:11:22;;;;;;;0.00;0.00;;;9.70;68.10;;;;;;5050752;28;20057;-83
2021/11/09 04:16:38;;;;;;;0.00;0.00;;;9.70;68.20;;;;;;5035105;28;20116;-83
2021/11/09 04:40:58;;;;;;;0.00;0.00;;;9.50;68.60;;;;;;5034977;28;20409;-83
2021/11/09 05:09:51;;;;;;;0.00;0.00;;;9.00;70.50;;;;;;5034629;28;20061;-83
2021/11/09 05:12:16;;;;;;;0.00;0.00;;;9.00;70.50;;;;;;5033865;28;20030;-83
2021/11/09 05:14:42;;;;;;;0.00;0.00;;;9.00;71.10;;;;;;5033794;28;20408;-83
2021/11/09 05:17:08;;;;;;;0.00;0.00;;;9.00;71.00;;;;;;5033895;28;20033;-83
2021/11/09 05:19:33;;;;;;;0.20;0.00;;;8.90;71.30;;;;;;5034210;28;20018;-83
2021/11/09 05:21:59;;;;;;;0.00;0.00;;;9.00;71.30;;;;;;5033670;28;20125;-82
2021/11/09 05:24:25;;;;;;;0.00;0.00;;;9.00;71.60;;;;;;5034228;28;20036;-82
2021/11/09 05:26:52;;;;;;;0.00;0.00;;;9.10;71.60;;;;;;5034010;28;20025;-82
2021/11/09 05:29:17;;;;;;;0.00;0.00;;;9.10;71.40;;;;;;5033865;28;20021;-82
2021/11/09 05:31:44;;;;;;;0.00;0.00;;;9.20;71.40;;;;;;5032657;28;20404;-82
2021/11/09 05:34:10;;;;;;;0.00;0.00;;;9.30;71.30;;;;;;5033696;28;20030;-83
2021/11/09 05:36:38;;;;;;;0.00;0.00;;;9.40;71.40;;;;;;5034517;28;20100;-82
2021/11/09 05:39:19;;;;;;;0.00;0.00;;;9.50;71.10;;;;;;5034965;28;20131;-82
2021/11/09 05:41:50;;;;;;;0.00;0.00;;;9.50;70.90;;;;;;5033392;28;20494;-82
2021/11/09 05:44:16;;;;;;;0.10;0.00;;;9.60;70.90;;;;;;5033742;28;20029;-82
2021/11/09 05:46:42;;;;;;;0.00;0.00;;;9.70;70.60;;;;;;5034023;28;20472;-82
2021/11/09 05:49:08;;;;;;;0.00;0.00;;;9.80;70.50;;;;;;5033371;28;20022;-82
2021/11/09 05:51:34;;;;;;;0.00;0.00;;;9.90;70.40;;;;;;5033347;28;20420;-82
2021/11/09 05:54:00;;;;;;;0.00;0.00;;;10.00;70.10;;;;;;5049347;28;20028;-82
2021/11/09 05:56:27;;;;;;;0.00;0.00;;;10.10;70.00;;;;;;5033679;28;20445;-82
2021/11/09 05:58:53;;;;;;;0.00;0.00;;;10.10;69.90;;;;;;5048771;28;20484;-82
2021/11/09 06:01:19;;;;;;;0.00;0.00;;;10.20;69.80;;;;;;5033559;28;20034;-82
2021/11/09 06:03:45;;;;;;;0.00;0.00;;;10.20;69.70;;;;;;5027985;28;20018;-82
2021/11/09 06:06:10;;;;;;;0.00;0.00;;;10.30;69.70;;;;;;5028235;28;20432;-82
2021/11/09 06:08:36;;;;;;;0.00;0.00;;;10.40;69.50;;;;;;5013456;28;20413;-82
2021/11/09 06:11:02;;;;;;;0.00;0.00;;;10.40;69.30;;;;;;5013714;28;20037;-82
2021/11/09 06:13:28;;;;;;;0.00;0.00;;;10.50;69.20;;;;;;5013195;28;20060;-82
2021/11/09 06:15:54;;;;;;;0.00;0.00;;;10.50;69.10;;;;;;5013706;28;20366;-82
2021/11/09 06:18:20;;;;;;;0.00;0.00;;;10.60;69.00;;;;;;5031992;28;20060;-82
2021/11/09 06:20:46;;;;;;;0.00;0.00;;;10.60;68.80;;;;;;5032922;28;20037;-82
2021/11/09 06:23:12;;;;;;;0.00;0.00;;;10.60;68.60;;;;;;5023683;28;20029;-82
2021/11/09 06:25:39;;;;;;;0.00;0.00;;;10.70;68.40;;;;;;5033020;28;20025;-82
2021/11/09 06:28:06;;;;;;;0.00;0.00;;;10.70;68.20;;;;;;5032866;28;20026;-82
2021/11/09 06:30:33;;;;;;;0.00;0.00;;;10.70;68.00;;;;;;5032692;28;20487;-82
2021/11/09 06:32:59;;;;;;;0.00;0.00;;;10.70;67.90;;;;;;5032743;28;20026;-82
2021/11/09 06:35:26;;;;;;;0.00;0.00;;;10.60;67.80;;;;;;5032564;28;20420;-82
2021/11/09 06:37:51;;;;;;;0.00;0.00;;;10.60;67.90;;;;;;5024812;28;20451;-83
2021/11/09 06:40:18;;;;;;;0.00;0.00;;;10.50;67.70;;;;;;5027183;28;20033;-83
2021/11/09 06:42:44;;;;;;;0.00;0.00;;;10.50;67.60;;;;;;5021287;28;20049;-83
2021/11/09 06:45:10;;;;;;;0.00;0.00;;;10.50;67.60;;;;;;5013309;28;20450;-83
2021/11/09 06:47:36;;;;;;;0.00;0.00;;;10.50;67.50;;;;;;5013308;28;20026;-82
2021/11/09 06:50:04;;;;;;;0.00;0.00;;;10.50;67.40;;;;;;5011948;28;20038;-82
2021/11/09 06:52:31;;;;;;;0.00;0.00;;;10.50;67.30;;;;;;5013466;28;20109;-82
2021/11/09 06:54:56;;;;;;;0.00;0.00;;;10.50;67.30;;;;;;5017168;28;20033;-82
2021/11/09 06:57:22;;;;;;;0.00;0.00;;;10.50;67.10;;;;;;5022096;28;20488;-82
2021/11/09 06:59:48;;;;;;;0.00;0.00;;;10.50;66.90;;;;;;5032629;28;20096;-82
2021/11/09 07:02:14;;;;;;;0.00;0.00;;;10.50;66.80;;;;;;5035219;28;20033;-82
2021/11/09 07:04:40;;;;;;;0.00;0.00;;;10.50;66.80;;;;;;5036705;28;20029;-82
2021/11/09 07:07:06;;;;;;;0.00;0.00;;;10.50;66.70;;;;;;5036809;28;20454;-82
2021/11/09 07:09:32;;;;;;;0.00;0.00;;;10.50;66.70;;;;;;5036319;28;20028;-82
2021/11/09 07:11:58;;;;;;;0.00;0.00;;;10.50;66.40;;;;;;5036638;28;20030;-83
2021/11/09 07:14:24;;;;;;;0.00;0.00;;;10.50;66.20;;;;;;5036494;28;20060;-83
2021/11/09 07:16:52;;;;;;;0.00;0.00;;;10.40;66.00;;;;;;5036116;28;20022;-83
2021/11/09 07:19:18;;;;;;;0.00;0.00;;;10.40;65.90;;;;;;5036217;28;20402;-83
2021/11/09 07:21:45;;;;;;;0.00;0.00;;;10.30;65.80;;;;;;5036320;28;20033;-83
2021/11/09 07:24:12;;;;;;;0.00;0.00;;;10.30;65.90;;;;;;5036492;28;20052;-83
2021/11/09 07:26:38;;;;;;;0.00;0.00;;;10.20;65.80;;;;;;5036027;28;20083;-83
2021/11/09 07:29:04;;;;;;;0.00;0.00;;;10.20;65.80;;;;;;5036108;28;20469;-83
2021/11/09 07:31:32;;;;;;;0.00;0.00;;;10.20;65.80;;;;;;5036011;28;20052;-83
2021/11/09 07:33:59;;;;;;;0.00;0.00;;;10.20;65.70;;;;;;5035897;28;20412;-83
2021/11/09 07:36:25;;;;;;;0.00;0.00;;;10.20;65.50;;;;;;5035060;28;20021;-83
2021/11/09 07:38:51;;;;;;;0.00;0.00;;;10.20;65.50;;;;;;5035707;28;20469;-83
2021/11/09 07:41:18;;;;;;;0.00;0.00;;;10.20;65.60;;;;;;5035836;28;20382;-83
2021/11/09 07:43:43;;;;;;;0.00;0.00;;;10.30;65.40;;;;;;5035558;28;20021;-83
2021/11/09 07:46:09;;;;;;;0.00;0.00;;;10.30;65.20;;;;;;5035924;28;20484;-83
2021/11/09 07:48:35;;;;;;;0.00;0.00;;;10.40;65.10;;;;;;5052837;28;20049;-83
2021/11/09 07:51:01;;;;;;;0.00;0.00;;;10.40;65.00;;;;;;5036663;28;20521;-83
2021/11/09 07:53:34;;;;;;;0.00;0.00;;;10.40;64.90;;;;;;5035947;28;20022;-83
2021/11/09 07:56:22;;;;;;;0.00;0.00;;;10.50;64.80;;;;;;5036046;28;20021;-83
2021/11/09 07:59:37;;;;;;;0.00;0.00;;;10.50;64.70;;;;;;5035460;28;20041;-83
2021/11/09 08:01:43;;;;;;;0.00;0.00;;;10.60;65.10;;;;;;5028078;28;20493;-83
2021/11/09 08:04:23;;;;;;;0.00;0.00;;;10.80;64.50;;;;;;5036191;28;20040;-83
2021/11/09 08:06:56;;;;;;;0.00;0.00;;;10.80;63.80;;;;;;5032054;28;20370;-81
2021/11/09 08:11:54;;;;;;;0.00;0.00;;;10.90;63.20;;;;;;5026551;28;20034;-81
2021/11/09 08:14:20;;;;;;;0.00;0.00;;;11.40;64.30;;;;;;5022875;28;20480;-81
2021/11/09 08:16:48;;;;;;;0.00;0.00;;;12.70;64.10;;;;;;5025155;28;20071;-82
2021/11/09 08:19:15;;;;;;;0.00;0.00;;;14.30;62.70;;;;;;5023828;28;20454;-82
2021/11/09 08:21:41;;;;;;;0.00;0.00;;;15.50;59.50;;;;;;5022943;28;20033;-82
2021/11/09 08:24:15;;;;;;;0.00;0.00;;;16.00;56.50;;;;;;5024878;28;20378;-82
2021/11/09 08:26:41;;;;;;;0.00;0.00;;;16.00;55.10;;;;;;5024832;28;20044;-82
2021/11/09 08:29:06;;;;;;;0.00;0.00;;;16.60;54.60;;;;;;5025011;28;20458;-81
2021/11/09 08:31:35;;;;;;;0.00;0.00;;;17.40;53.00;;;;;;5023983;28;20079;-82
2021/11/09 08:34:03;;;;;;;0.00;0.00;;;18.00;51.70;;;;;;5023181;28;20044;-82
2021/11/09 08:36:30;;;;;;;0.00;0.00;;;18.70;49.80;;;;;;5026102;28;20572;-82
2021/11/09 08:39:03;;;;;;;0.00;0.00;;;18.70;48.00;;;;;;5031043;28;20050;-82
2021/11/09 08:41:38;;;;;;;0.00;0.00;;;18.90;47.50;;;;;;5024849;28;20064;-82
2021/11/09 08:44:06;;;;;;;0.00;0.00;;;19.50;46.40;;;;;;5024784;28;20354;-82
2021/11/09 08:46:42;;;;;;;0.00;0.00;;;19.70;44.80;;;;;;5022276;28;20061;-82
2021/11/09 08:49:09;;;;;;;0.00;0.00;;;20.20;43.60;;;;;;5024922;28;20067;-83
2021/11/09 08:51:36;;;;;;;0.00;0.00;;;20.30;42.30;;;;;;5023930;28;20026;-82
2021/11/09 08:54:12;;;;;;;0.00;0.00;;;19.70;41.80;;;;;;5022553;28;20290;-82
2021/11/09 09:04:39;;;;;;;0.00;0.00;;;21.60;40.40;;;;;;5024570;28;20103;-83
2021/11/09 09:07:05;;;;;;;0.00;0.00;;;21.20;39.40;;;;;;5024410;28;20485;-82
2021/11/09 09:09:31;;;;;;;0.00;0.00;;;20.50;39.50;;;;;;5022892;28;20454;-82
2021/11/09 09:11:56;;;;;;;0.00;0.00;;;20.20;39.60;;;;;;5022960;28;20131;-82
2021/11/09 09:14:24;;;;;;;0.00;0.00;;;19.60;39.90;;;;;;5024413;28;20070;-82
2021/11/09 09:16:50;;;;;;;0.00;0.00;;;18.80;40.40;;;;;;5022458;28;20105;-82
2021/11/09 09:19:19;;;;;;;0.00;0.00;;;18.10;41.60;;;;;;5023558;28;20373;-81
2021/11/09 09:21:50;;;;;;;0.00;0.00;;;17.50;42.40;;;;;;5028292;28;20069;-80
2021/11/09 09:57:06;;;;;;;0.00;0.00;;;14.90;46.30;;;;;;5033873;28;20382;-82
2021/11/09 09:59:36;;;;;;;0.00;0.00;;;14.80;46.40;;;;;;5033859;28;20045;-83
2021/11/09 10:02:14;;;;;;;0.00;0.00;;;14.70;46.60;;;;;;5032398;28;20033;-83
2021/11/09 10:05:05;;;;;;;0.00;0.00;;;14.70;46.70;;;;;;5032302;28;20381;-83
2021/11/09 10:07:33;;;;;;;0.00;0.00;;;15.50;47.00;;;;;;5033391;28;20535;-82
2021/11/09 10:10:02;;;;;;;0.00;0.00;;;16.10;46.00;;;;;;5048520;28;20108;-83
2021/11/09 10:12:33;;;;;;;0.00;0.00;;;15.90;45.10;;;;;;5033734;28;20033;-81
2021/11/09 10:15:11;;;;;;;0.00;0.00;;;15.60;45.10;;;;;;5033542;28;20022;-82
2021/11/09 10:17:39;;;;;;;0.00;0.00;;;15.30;45.20;;;;;;5048688;28;20022;-82
2021/11/09 10:20:17;;;;;;;0.00;0.00;;;15.50;46.00;;;;;;5033215;28;20026;-82
2021/11/09 10:22:45;;;;;;;0.00;0.00;;;16.20;45.90;;;;;;5032741;28;20038;-82
2021/11/09 10:25:14;;;;;;;0.00;0.00;;;16.90;45.00;;;;;;5032856;28;20088;-82
2021/11/09 10:27:43;;;;;;;0.00;0.00;;;17.80;44.50;;;;;;5032928;28;20107;-82
2021/11/09 10:30:09;;;;;;;0.00;0.00;;;19.00;43.10;;;;;;5033357;28;20080;-82
2021/11/09 10:32:35;;;;;;;0.00;0.00;;;19.90;41.90;;;;;;5033205;28;20033;-82
2021/11/09 10:35:03;;;;;;;0.00;0.00;;;19.90;40.10;;;;;;5026599;28;20040;-82
2021/11/09 10:37:32;;;;;;;0.00;0.00;;;19.30;39.40;;;;;;5026225;28;20038;-82
2021/11/09 10:40:00;;;;;;;0.00;0.00;;;18.40;39.70;;;;;;5032071;28;20049;-82
2021/11/09 10:42:28;;;;;;;0.00;0.00;;;17.70;40.20;;;;;;5025315;28;20080;-82
2021/11/09 10:45:00;;;;;;;0.45;0.00;;;16.90;40.70;;;;;;5031989;28;20128;-82
2021/11/09 10:47:32;;;;;;;0.00;0.00;;;16.10;41.20;;;;;;5025513;28;20457;-82
2021/11/09 10:50:04;;;;;;;0.00;0.00;;;15.50;41.90;;;;;;5026603;28;20481;-82
2021/11/09 10:52:37;;;;;;;0.00;0.00;;;15.00;42.60;;;;;;5026751;28;20469;-83
2021/11/09 10:58:16;;;;;;;0.00;0.00;;;14.80;43.10;;;;;;5024907;28;20026;-82
2021/11/09 11:06:17;;;;;;;0.00;0.00;;;14.60;43.60;;;;;;5026364;28;20476;-82
2021/11/09 11:09:12;;;;;;;0.00;0.00;;;14.30;44.00;;;;;;5025471;28;20021;-82
2021/11/09 11:11:49;;;;;;;0.00;0.00;;;14.00;44.40;;;;;;5021249;28;20052;-81
2021/11/09 11:14:29;;;;;;;0.00;0.00;;;13.70;44.80;;;;;;5026936;28;20473;-82
2021/11/09 11:16:56;;;;;;;0.00;0.00;;;13.40;45.20;;;;;;5026694;28;20025;-83
2021/11/09 11:19:27;;;;;;;0.00;0.00;;;13.00;45.50;;;;;;5025564;28;20033;-83
2021/11/09 11:21:53;;;;;;;0.00;0.00;;;12.60;45.80;;;;;;5016504;28;20120;-83
2021/11/09 11:24:21;;;;;;;0.00;0.00;;;12.30;46.20;;;;;;5016529;28;20030;-82
2021/11/09 11:26:48;;;;;;;0.00;0.00;;;12.10;46.60;;;;;;5016333;28;20080;-82
2021/11/09 11:29:16;;;;;;;0.00;0.00;;;11.80;46.80;;;;;;5016379;28;20033;-83
2021/11/09 11:31:42;;;;;;;0.00;0.00;;;11.60;47.00;;;;;;5021335;28;20026;-83
2021/11/09 11:34:07;;;;;;;0.00;0.00;;;11.40;47.30;;;;;;5051597;28;20072;-82
2021/11/09 11:36:33;;;;;;;0.00;0.00;;;11.30;47.60;;;;;;5034525;28;20116;-82
2021/11/09 11:39:04;;;;;;;0.00;0.00;;;11.40;47.80;;;;;;5038686;28;20049;-81
2021/11/09 11:41:32;;;;;;;0.00;0.00;;;11.30;47.90;;;;;;5038205;28;20048;-83
2021/11/09 11:43:59;;;;;;;0.00;0.00;;;11.30;47.90;;;;;;5033452;28;20036;-83
2021/11/09 11:46:31;;;;;;;0.00;0.00;;;11.30;48.00;;;;;;5031312;28;20374;-83
2021/11/09 11:49:02;;;;;;;0.00;0.00;;;11.20;48.00;;;;;;5013095;28;20022;-82
2021/11/09 11:51:30;;;;;;;0.00;0.00;;;11.10;48.00;;;;;;5030482;28;20030;-82
2021/11/09 11:53:56;;;;;;;0.00;0.00;;;11.00;48.10;;;;;;5015685;28;20026;-82
2021/11/09 11:56:44;;;;;;;0.00;0.00;;;10.90;48.30;;;;;;5034886;28;20120;-83
2021/11/09 11:59:21;;;;;;;0.00;0.00;;;10.80;48.70;;;;;;5035040;28;20104;-84
2021/11/09 12:01:47;;;;;;;0.00;0.00;;;10.70;49.10;;;;;;5034938;28;20029;-82
2021/11/09 12:04:36;;;;;;;0.00;0.00;;;10.70;49.10;;;;;;5018500;28;20470;-82
2021/11/09 12:07:09;;;;;;;0.00;0.00;;;10.70;48.40;;;;;;5015334;28;20096;-82
2021/11/09 12:09:40;;;;;;;0.00;0.00;;;10.70;48.30;;;;;;5031192;28;20087;-82
2021/11/09 12:12:27;;;;;;;0.00;0.00;;;10.90;48.10;;;;;;5022337;28;20057;-82
2021/11/09 12:15:01;;;;;;;0.00;0.00;;;12.00;47.00;;;;;;5015423;28;20496;-82
2021/11/09 12:17:36;;;;;;;0.00;0.00;;;13.20;47.30;;;;;;5021010;28;20049;-83
2021/11/09 12:20:05;;;;;;;0.00;0.00;;;14.20;46.80;;;;;;5020941;28;20038;-83
2021/11/09 12:22:51;;;;;;;0.00;0.00;;;14.60;45.00;;;;;;5024625;28;20113;-82
2021/11/09 12:25:32;;;;;;;0.00;0.00;;;14.60;44.10;;;;;;5046722;28;20025;-83
2021/11/09 12:28:01;;;;;;;0.00;0.00;;;15.20;44.10;;;;;;5026158;28;20036;-84
2021/11/09 12:30:36;;;;;;;0.00;0.00;;;16.30;43.60;;;;;;5032365;28;20056;-83
2021/11/09 12:33:17;;;;;;;0.00;0.00;;;17.50;42.20;;;;;;5023613;28;20029;-83
2021/11/09 12:35:50;;;;;;;0.00;0.00;;;18.40;39.90;;;;;;5030988;28;20026;-84
2021/11/09 12:38:32;;;;;;;0.00;0.00;;;19.10;38.70;;;;;;5025482;28;20040;-82
2021/11/09 12:41:00;;;;;;;0.00;0.00;;;19.50;37.00;;;;;;5032521;28;20370;-82
2021/11/09 12:43:31;;;;;;;0.00;0.00;;;19.80;36.40;;;;;;5030798;28;20033;-81
2021/11/09 12:46:38;;;;;;;0.00;0.00;;;19.90;34.50;;;;;;5043318;28;20025;-91
2021/11/09 12:49:13;;;;;;;0.00;0.00;;;19.20;33.60;;;;;;5031762;28;20033;-88
2021/11/09 12:51:51;;;;;;;0.00;0.00;;;17.90;34.80;;;;;;5033435;28;20029;-74
2021/11/09 12:54:23;;;;;;;0.00;0.00;;;16.80;35.80;;;;;;5029698;28;20525;-76
2021/11/09 12:56:52;;;;;;;0.00;0.00;;;15.70;36.90;;;;;;5013783;28;20108;-76
2021/11/09 12:59:31;;;;;;;0.00;0.00;;;15.00;37.80;;;;;;5013761;28;20124;-88
2021/11/09 13:07:29;;;;;;;0.00;0.00;;;12.90;40.10;;;;;;5024774;28;20425;-91
2021/11/09 13:10:06;;;;;;;0.00;0.00;;;12.30;41.30;;;;;;5024393;28;20029;-88
2021/11/09 13:12:33;;;;;;;0.00;0.00;;;11.90;41.60;;;;;;5022379;28;20477;-88
2021/11/09 13:15:05;;;;;;;0.00;0.00;;;11.50;42.00;;;;;;5022745;28;20477;-89
2021/11/09 13:17:35;;;;;;;0.00;0.00;;;11.20;42.60;;;;;;5032200;28;20025;-88
2021/11/09 13:20:14;;;;;;;0.00;0.00;;;11.00;43.30;;;;;;5033292;28;20025;-89
2021/11/09 13:22:53;;;;;;;0.00;0.00;;;10.70;44.00;;;;;;5033809;28;20093;-89
2021/11/09 13:25:26;;;;;;;0.00;0.00;;;10.40;44.80;;;;;;5034209;28;20025;-90
2021/11/09 13:27:53;;;;;;;0.00;0.00;;;10.20;44.90;;;;;;5032681;28;20048;-91
2021/11/09 13:30:23;;;;;;;0.00;0.00;;;10.00;45.30;;;;;;5030386;28;20044;-88
2021/11/09 13:32:52;;;;;;;0.00;0.00;;;9.80;45.50;;;;;;5038234;28;20056;-90
2021/11/09 13:35:25;;;;;;;0.10;0.00;;;9.70;46.30;;;;;;5032849;28;20025;-88
2021/11/09 13:38:06;;;;;;;0.00;0.00;;;9.50;47.20;;;;;;5032602;28;20087;-89
2021/11/09 13:40:32;;;;;;;0.00;0.00;;;9.40;47.00;;;;;;4968813;28;1337717;-90
2021/11/09 13:43:03;;;;;;;0.00;0.00;;;9.30;47.30;;;;;;5013479;28;20050;-89
2021/11/09 13:45:29;;;;;;;0.00;0.00;;;9.10;47.20;;;;;;5013517;28;20113;-88
2021/11/09 13:47:55;;;;;;;0.00;0.00;;;8.90;46.80;;;;;;5013815;28;20462;-90
2021/11/09 13:50:21;;;;;;;0.00;0.00;;;8.80;46.80;;;;;;5014129;28;20114;-89
2021/11/09 13:52:49;;;;;;;0.00;0.00;;;8.70;46.90;;;;;;5013861;28;20038;-89
2021/11/09 13:55:18;;;;;;;0.00;0.00;;;8.50;46.90;;;;;;5013043;28;20493;-90
2021/11/09 13:57:45;;;;;;;0.00;0.00;;;8.40;47.20;;;;;;5013916;28;20100;-90
2021/11/09 14:00:34;;;;;;;0.00;0.00;;;8.40;47.20;;;;;;5029166;28;20021;-89
2021/11/09 14:06:10;;;;;;;0.00;0.00;;;8.30;47.60;;;;;;5013927;28;20022;-90
2021/11/09 14:16:39;;;;;;;0.00;0.00;;;8.20;47.70;;;;;;5021841;28;20028;-90
2021/11/09 14:19:08;;;;;;;0.00;0.00;;;8.20;48.10;;;;;;5028760;28;20121;-90
2021/11/09 14:21:39;;;;;;;0.00;0.00;;;8.00;48.30;;;;;;5021084;28;20080;-90
2021/11/09 14:24:15;;;;;;;0.00;0.00;;;7.80;48.90;;;;;;5024319;28;20083;-90
2021/11/09 14:26:43;;;;;;;0.00;0.00;;;7.70;49.70;;;;;;5013411;28;20018;-88
2021/11/09 14:29:23;;;;;;;0.00;0.00;;;7.60;49.60;;;;;;5013069;28;20049;-89
2021/11/09 14:32:03;;;;;;;0.00;0.00;;;7.50;49.50;;;;;;5013802;28;20052;-91
2021/11/09 14:34:29;;;;;;;0.00;0.00;;;7.40;49.60;;;;;;5016740;28;20093;-89
2021/11/09 14:37:21;;;;;;;0.00;0.00;;;7.40;49.70;;;;;;5033053;28;20494;-90
2021/11/09 14:40:16;;;;;;;0.00;0.00;;;7.40;50.10;;;;;;5040044;28;20405;-89
2021/11/09 14:42:58;;;;;;;0.00;0.00;;;7.40;50.40;;;;;;5032378;28;20160;-89
2021/11/09 14:45:35;;;;;;;0.00;0.00;;;7.30;50.40;;;;;;5042559;28;20049;-87
2021/11/09 14:48:15;;;;;;;1.08;0.00;;;7.30;50.70;;;;;;5012850;28;20079;-89
2021/11/09 14:50:51;;;;;;;0.00;0.00;;;7.30;50.80;;;;;;5013534;28;20022;-90
2021/11/09 14:53:39;;;;;;;0.00;0.00;;;7.30;51.70;;;;;;5012899;28;20037;-90
2021/11/09 14:56:08;;;;;;;0.00;0.00;;;7.20;51.50;;;;;;5031255;28;20041;-89
2021/11/09 14:58:39;;;;;;;0.00;0.00;;;7.10;51.40;;;;;;5033279;28;20026;-89
2021/11/09 15:01:16;;;;;;;0.00;0.00;;;7.10;51.40;;;;;;5047566;28;20041;-90
2021/11/09 15:03:52;;;;;;;0.00;0.00;;;7.10;52.20;;;;;;5031995;28;20191;-89
2021/11/09 15:06:25;;;;;;;0.00;0.00;;;7.00;52.20;;;;;;5013747;28;20033;-90
2021/11/09 15:09:20;;;;;;;0.00;0.00;;;7.00;52.60;;;;;;5012962;28;20026;-90
2021/11/09 15:28:14;;;;;;;0.00;0.00;;;6.80;53.20;;;;;;5027127;28;20453;-90
2021/11/09 15:30:51;;;;;;;0.10;0.05;;;6.80;53.20;;;;;;5026777;28;20417;-90
2021/11/09 15:38:23;;;;;;;0.00;0.00;;;6.70;54.20;;;;;;5036460;28;20448;-89
2021/11/09 15:40:50;;;;;;;0.00;0.00;;;6.70;54.00;;;;;;5036187;28;20099;-89
2021/11/09 15:43:15;;;;;;;0.00;0.00;;;6.70;54.40;;;;;;5035927;28;20393;-88
2021/11/09 15:45:41;;;;;;;0.00;0.00;;;6.80;54.30;;;;;;5035723;28;20029;-88
2021/11/09 15:48:07;;;;;;;0.00;0.00;;;6.80;54.20;;;;;;5036042;28;20017;-88
2021/11/09 15:50:34;;;;;;;0.00;0.00;;;6.80;54.50;;;;;;5036081;28;20021;-88
2021/11/09 15:52:59;;;;;;;0.00;0.00;;;6.80;54.40;;;;;;5035395;28;20029;-89
2021/11/09 15:55:25;;;;;;;0.00;0.00;;;6.80;54.40;;;;;;5036036;28;20037;-91
2021/11/09 15:57:51;;;;;;;0.00;0.00;;;6.80;54.30;;;;;;5034406;28;20037;-89
2021/11/09 16:00:17;;;;;;;0.00;0.00;;;6.90;54.30;;;;;;5035141;28;20025;-88